donderdag 29 oktober 2020 | Home | Bestenlijsten | Bestenlijsten NL | Calculators | Nieuws | Records | Uitslagen | Wedstrijden | VZA Ranglijsten | Weer |
 
Recent nieuws meer nieuws
30-09: Marathon Vlissingen geannuleerd
01-09: Marijke de Visser verrassend naar zilver in PR op NK 5000m vrouwen
18-07: Ramses Bekkenk blijkt al ruim 20 jaar Zeeuws recordhouder op 3000m/3000m steeple
20-06: Staf Dobbelaere: een schaap met vijf poten?
09-06: Woordenstrijd zonder koek
02-06: Terugblik op het NK marathon 1964 in Vlissingen
Wedstrijdagenda meer wedstrijden
Recente uitslagen
  meer uitslagen
za 10-10: Wilhelminapolderloop Goes
zo 20-09: Dwars Door De Zwingeul Cadzand-Bad
zo 20-09: Trail By The Sea Renesse
za 19-09: 2e Wemeldingeloop
 
Zoek tenminste met 3 tekens van wedstrijd, datum, plaats of atleet

Steense Rattenloop

Sint Jansteen, zaterdag 14 december 2019 - Organisatie: Funrunners
12.85 km
PltsNaam
Tijdkm/umin/kmm/secgap
1  Mark VerhageAxel45.31minMse   16.939  3:334.71-
2  Martijn de KokHeinkenszand47.23minM35   16.272  3:414.52+1:52
3  Tom van DriesscheZele48.37minM45   15.859  3:474.41+3:06
4  Bart MangnusKamerik48.39minMse   15.848  3:474.40+3:08
5  Wim van SparrentakSint Laurens48.57minM50   15.751  3:494.38+3:26
6  Arjo VerhageAagtekerke49.38minM50   15.534  3:524.31+4:07
7  Marnix van den BrandeTerneuzen50.09minMse   15.374  3:544.27+4:38
8  Giovanni van LokerenZele51.03minM40   15.103  3:584.20+5:32
9  Rudy van GuyseStekene52.07minM60   14.794  4:034.11+6:36
10  Filip van GoethemSint-Gillis-Waas53.01minM45   14.543  4:084.04+7:30
11  Benny ThuySint Jansteen54.27minM50   14.160  4:143.93+8:56
12  Menno den DekkerTerneuzen56.08minM45   13.735  4:223.82+10:37
13  Nico KroesBreda56.10minMse   13.727  4:223.81+10:39
14  Sven MarimanBreda56.58minMse   13.534  4:263.76+11:27
15  Michiel YsebaertSint Jansteen57.37minMse   13.382  4:293.72+12:06
16  Andre VerdurmenKloosterzande57.46minM50   13.347  4:303.71+12:15
17  Raoul de WildeZele57.55minM55   13.312  4:303.70+12:24
18  S. MartinusKoewacht58.37minM50   13.153  4:343.65+13:06
19  Erwin NachtegaelHeikant58.42minM55   13.135  4:343.65+13:11
20  Rene HellebrekersKuitaart59.12minMse   13.024  4:363.62+13:41
21  Patrick GauweZuiddorpe59.19minM50   12.998  4:373.61+13:48
22  Natasja de BooijWalsoorden59.21minV45   12.991  4:373.61+13:50
23  Alain LippensErtvelde59.37minM55   12.933  4:383.59+14:06
24  Paul WeemaesSint Jansteen1.00.16minM55   12.793  4:413.55+14:45
25  Rudi de CaluweSas van Gent1.00.20minM60   12.779  4:423.55+14:49
26  Gino DhanisSint Jansteen1.00.25minM55   12.761  4:423.54+14:54
27  Mike van DorsselaerSint Jansteen1.01.04minMse   12.626  4:453.51+15:33
28  Ingrid IjsebaertVVN1.01.14minV50   12.591  4:463.50+15:43
29  Paul HaertjensBoekhoute1.01.24minM55   12.557  4:473.49+15:53
30  Tom SchauwaertHulst1.01.29minM55   12.540  4:473.48+15:58
31  Eddy de CaluweOssenisse1.02.04minM55   12.422  4:503.45+16:33
32  Kees den HollanderDreischor1.02.40minM50   12.303  4:533.42+17:09
33  Pascal CottonSint-Pauwels1.04.00minM50   12.047  4:593.35+18:29
34  Age BaltHulst1.04.24minM55   11.972  5:013.33+18:53
35  Peter MaranusAagtekerke1.05.36minM50   11.753  5:063.26+20:05
36  Wim StrobbeKloosterzande1.05.42minM60   11.735  5:073.26+20:11
37  Luc KusseneersRumst1.05.50minM60   11.711  5:073.25+20:19
38  Jan BostelaarWestkapelle1.05.56minM70   11.694  5:083.25+20:25
39  Michel FieretTerneuzen1.06.01minM45   11.679  5:083.24+20:30
40  Franky StandaertAssenede1.06.08minM45   11.658  5:093.24+20:37
41  Carmen BogaertStekene1.06.44minV45   11.553  5:123.21+21:13
42  Eddy WaelputStekene1.06.53minM50   11.528  5:123.20+21:22
43  Willy MerckxStekene1.08.16minM65   11.294  5:193.14+22:45
44  Els ZweistraTerneuzen1.08.19minV60   11.286  5:193.13+22:48
45  Nicole SerrarensSint Jansteen1.08.23minV45   11.275  5:193.13+22:52
46  Stefanie vd VisserHoek1.10.00minV40   11.014  5:273.06+24:29
47  Ineke de KrakerHoek1.13.14minVse   10.528  5:422.92+27:43
48  Nienke BoogmansMoerbeke1.14.05minVse   10.407  5:462.89+28:34
49  Arthur StijnsOudelande1.14.07minM70   10.403  5:462.89+28:36
Mannen: 41 (83.67%) => M35=1 - M40=1 - M45=5 - M50=10 - M55=9 - M60=4 - M65=1 - M70=2 - Mse=8
Vrouwen: 8 (16.33%) => V40=1 - V45=3 - V50=1 - V60=1 - Vse=2

Overzicht Top3, winnares en aantal deelnemers van aanwezige edities

JaarWinnaarTijd2eTijd 3eTijdWinnaresTijd#

12.5 km

2019Sander d'Hont46:34Tom van Driessche46:57Edwin de la Ruelle47:10Sharon Bogaert53:2749
2018Jordi van Guyse43:23Jente Samson43:49Christoph de Man43:50Cathy Poppe54:3167
2017Sander Post45:56Mark Verhage47:12Benny Thuy49:41Cathy Poppe55:3038
2016Sander Post44:21Jerte Samson45:30Mark Verhage45:55Cathy Poppe54:2078
2015Sander Post46:42Tim Messagie47:28Edwin de Neijs47:35Cathy Poppe57:3665
2014Benny Thuy45:33Sander Post45:54Geert de Keyser46:00Monique Allefs56:2382
8.4 km
PltsNaam
Tijdkm/umin/kmm/secgap
1  Mike VerbekeSint-Laureins30.48minMse   16.364  3:404.55-
2  Bert VerbekeSente31.31minMse   15.992  3:454.44+0:43
3  Gert-Jan MartensHulst31.45minMse   15.874  3:474.41+0:57
4  Ruben BoutensMiddelburg34.09minMse   14.758  4:044.10+3:21
5  Veerle WuytackHamme36.42minV45   13.733  4:223.81+5:54
6  Maurice SteketeeMiddelburg37.12minM35   13.548  4:263.76+6:24
7  Kylie de BeuleHeikant38.45minVse   13.006  4:373.61+7:57
8  Jos van GrembergheKoewacht39.14minM60   12.846  4:403.57+8:26
9  Willy SijmusKeerbergen39.22minM65   12.803  4:413.56+8:34
10  Bjorn de BetuweSint Jansteen39.35minM40   12.733  4:433.54+8:47
11  Jacques ZamanTerneuzen40.00minM55   12.600  4:463.50+9:12
12  John GuequierreMiddelburg40.31minM65   12.439  4:493.46+9:43
13  Leo KaijserTerneuzen41.02minM55   12.283  4:533.41+10:14
14  Sarah BogaertDuffel41.05minV35   12.268  4:533.41+10:17
15  Bennie BouterseTerneuzen41.08minM50   12.253  4:543.40+10:20
16  Linda VinkAxel41.13minV35   12.228  4:543.40+10:25
17  Marian van DammeMeerdonk42.21minV50   11.901  5:033.31+11:33
18  Marc WelvaertOosteeklo43.28minM55   11.595  5:103.22+12:40
19  Melissa ten KateAxel44.11minVse   11.407  5:163.17+13:23
20  Simone van KerckhovenKloosterzande44.24minVse   11.351  5:173.15+13:36
21  Margo HermansOssenisse45.54minV45   10.980  5:283.05+15:06
22  Petra MelHengstdijk46.29minV40   10.843  5:323.01+15:41
23  Annelies RomboutKieldrecht46.50minV60   10.762  5:352.99+16:02
24  Didier van NieuwenhuyzeAssenede47.44minM55   10.559  5:412.93+16:56
25  Ron SalomeKloosterzande48.11minM55   10.460  5:442.91+17:23
26  Gisela NijsseOud-Sabbinge48.21minV55   10.424  5:452.90+17:33
27  Daan DielemanZaamslag49.52minM70   10.107  5:562.81+19:04
28  Rudy van de VeldeWachtebeke50.48minM55   9.921  6:032.76+20:00
29  Eddy van BovenSchoonaarde52.23minM60   9.621  6:142.67+21:35
30  Romain BolssensKieldrecht52.35minM60   9.585  6:162.66+21:47
31  Marlies van de BergenHulst52.39minV55   9.573  6:162.66+21:51
32  Maya ClaeysSint Jansteen52.43minV40   9.561  6:172.66+21:55
Mannen: 19 (59.38%) => M35=1 - M40=1 - M50=1 - M55=6 - M60=3 - M65=2 - M70=1 - Mse=4
Vrouwen: 13 (40.63%) => V35=2 - V40=2 - V45=2 - V50=1 - V55=2 - V60=1 - Vse=3

Snelheid en tempo zijn berekend op de vermelde afstand. Bij een onjuiste afstand wijken deze uiteraard af!

Fouten melden via info@atletiekzeeland.nl Categorie fout? Mail dan geboortedatum. (geldt alleen voor Zeeuwen)

De server had 0.172 seconden nodig om deze lijst met 81 prestaties samen te stellen.

Terug naar boven


 
Recente Zeeuwse prestaties meer prestaties
11-10: Vestingloop Bergen op Zoom (22)
11-10: BK 10 km Lokeren (9)
04-10: Familiajogging Hamme (1)
04-10: Krekentrail Moerbeke (7)
25-09: Baanwedstrijd Zwolle (1)
20-09: Vestingloop Willemstad (13)
19-09: 49e Gouden Spike Leiden (3)
17-09: Avondbaanwedstrijd Rotterdam (5)
13-09: NK A/B-junioren Amersfoort (2)
12-09: Baanwedstrijd Tilburg (3)
06-09: Vestingloop Hellevoetsluis (12)
05-09: Zeeuws kampioenschap Hulst (15)
03-09: Avondbaanwedstrijd Naaldwijk (6)
Atletiek Zeeland © 2020